Unser Platzwetter:

(um das Bild zu aktualisieren oder bei unvollständig geladenem Bild den Reload-Button des Browsers drücken)

[Quelle: ADDS]
METAR
ETNN 301220Z 25022KT 2600 R25/1800D -RADZ BR BKN007 OVC010 08/07 Q1007 YLO GRN TEMPO YLO =
ETNN 301114Z 3012/3021 25020G30KT 8000 NSW SCT006 BKN012 TEMPO 3012/3021 26025G35KT 2000 RADZ SCT004 BKN008 BY ETGL
TAF
ETNN 301114Z 3012/3021 25020G30KT 8000 NSW SCT006 BKN012 TEMPO 3012/3021 26025G35KT 2000 RADZ SCT004 BKN008 BY ETGL =
SR / SS: 07:12 / 15:32 UTC (Vettweiss-Soller 2021-11-30)

Aktuelle Windrichtung in Relation zu unserer Bahn:

 

Aktuelle Dichtehöhe bei uns am Platz: 16 ft.

PPR beachten

50 44 51 N / 06 34 01 E
525 ft
14/32 Gras 360 m
136.090 MHz
02424/901444

Kontakt:

LSG Gertrudenhof e.V.
c/o Franz-Josef Schmidt
An der Gärtnerei 13
52388 Nörvenich
02426/9593651
0175/2660491

in Lokalzeit:
08:10
16:34